Time;durP1;ratioP1;P1;durP2;ratioP2;P2;SDS_P1;SDS_P2;PMS_P1;PMS_P2;Temp;Humidity;BMP_temperature;BMP_pressure;BME280_temperature;BME280_humidity;BME280_pressure;Samples;Min_cycle;Max_cycle;Signal;HPM_P1;HPM_P2
2023/04/08 00:01:52;;;;;;;;;;;;;;;8.54;100.00;102175.97;10254124;28;19981;-68
2023/04/08 00:06:55;;;;;;;;;;;;;;;8.34;100.00;102184.28;10254363;29;20468;-68
2023/04/08 00:11:57;;;;;;;;;;;;;;;8.36;100.00;102191.16;10253577;28;20294;-68
2023/04/08 00:16:59;;;;;;;;;;;;;;;8.42;100.00;102181.47;10254753;29;19977;-68
2023/04/08 00:22:01;;;;;;;;;;;;;;;8.22;100.00;102182.84;10252738;29;19958;-67
2023/04/08 00:27:04;;;;;;;;;;;;;;;7.89;100.00;102192.34;10252683;29;20327;-68
2023/04/08 00:32:06;;;;;;;;;;;;;;;7.89;100.00;102198.41;10252858;29;19926;-67
2023/04/08 00:37:09;;;;;;;;;;;;;;;7.86;100.00;102197.63;10253129;28;19948;-68
2023/04/08 00:42:11;;;;;;;;;;;;;;;7.67;100.00;102199.81;10236611;29;20378;-68
2023/04/08 00:47:14;;;;;;;;;;;;;;;7.78;100.00;102192.59;10259711;28;19926;-68
2023/04/08 00:52:16;;;;;;;;;;;;;;;7.51;100.00;102196.69;10260457;29;19926;-68
2023/04/08 00:57:18;;;;;;;;;;;;;;;7.52;100.00;102198.41;10260934;29;19980;-68
2023/04/08 01:02:24;;;;;;;;;;;;;;;7.58;100.00;102208.69;10259853;29;20279;-68
2023/04/08 01:07:31;;;;;;;;;;;;;;;7.42;100.00;102216.00;10259600;29;19934;-68
2023/04/08 01:12:36;;;;;;;;;;;;;;;7.38;100.00;102210.00;10258481;28;20333;-68
2023/04/08 01:17:38;;;;;;;;;;;;;;;7.36;100.00;102203.09;10242559;29;19973;-68
2023/04/08 01:22:41;;;;;;;;;;;;;;;7.41;100.00;102207.34;10259743;29;19930;-68
2023/04/08 01:27:43;;;;;;;;;;;;;;;7.54;100.00;102199.22;10258296;28;19927;-68
2023/04/08 01:32:45;;;;;;;;;;;;;;;7.48;100.00;102200.25;10260127;29;19926;-68
2023/04/08 01:37:48;;;;;;;;;;;;;;;7.35;100.00;102207.44;10258115;29;19926;-68
2023/04/08 01:42:51;;;;;;;;;;;;;;;7.27;100.00;102211.97;10257495;28;19926;-68
2023/04/08 01:47:53;;;;;;;;;;;;;;;7.58;100.00;102211.28;10257039;28;20370;-68
2023/04/08 01:52:56;;;;;;;;;;;;;;;7.37;100.00;102210.03;10258763;29;19933;-68
2023/04/08 01:57:59;;;;;;;;;;;;;;;7.29;100.00;102217.16;10256650;28;20309;-68
2023/04/08 02:03:01;;;;;;;;;;;;;;;7.45;100.00;102221.16;10258698;29;19930;-68
2023/04/08 02:08:04;;;;;;;;;;;;;;;7.41;100.00;102217.75;10240339;28;20357;-68
2023/04/08 02:13:06;;;;;;;;;;;;;;;7.29;100.00;102212.78;10259011;29;19973;-68
2023/04/08 02:18:10;;;;;;;;;;;;;;;7.00;100.00;102214.25;10256111;28;20338;-68
2023/04/08 02:23:13;;;;;;;;;;;;;;;7.15;100.00;102220.88;10256865;29;20380;-68
2023/04/08 02:28:16;;;;;;;;;;;;;;;7.10;100.00;102214.91;10239882;28;19927;-68
2023/04/08 02:33:20;;;;;;;;;;;;;;;7.13;100.00;102214.88;10256517;28;19977;-68
2023/04/08 02:38:22;;;;;;;;;;;;;;;7.09;100.00;102226.22;10255944;29;19981;-68
2023/04/08 02:43:30;;;;;;;;;;;;;;;6.74;100.00;102226.88;10256112;29;19927;-68
2023/04/08 02:48:32;;;;;;;;;;;;;;;6.92;100.00;102231.75;10255905;29;19927;-68
2023/04/08 02:53:34;;;;;;;;;;;;;;;6.83;100.00;102222.38;10257491;29;19954;-68
2023/04/08 02:58:37;;;;;;;;;;;;;;;6.74;100.00;102227.78;10255111;28;19926;-68
2023/04/08 03:03:39;;;;;;;;;;;;;;;6.69;100.00;102233.06;10255321;29;20330;-68
2023/04/08 03:08:41;;;;;;;;;;;;;;;6.96;100.00;102236.03;10254602;28;19938;-68
2023/04/08 03:13:45;;;;;;;;;;;;;;;6.93;100.00;102230.03;10256673;29;19934;-68
2023/04/08 03:18:50;;;;;;;;;;;;;;;6.99;100.00;102241.19;10256499;29;19978;-68
2023/04/08 03:23:53;;;;;;;;;;;;;;;6.76;100.00;102241.63;10255477;29;20017;-68
2023/04/08 03:28:55;;;;;;;;;;;;;;;6.79;100.00;102238.94;10255341;28;19974;-68
2023/04/08 03:33:57;;;;;;;;;;;;;;;6.77;100.00;102240.69;10237330;29;19927;-68
2023/04/08 03:38:59;;;;;;;;;;;;;;;6.47;100.00;102248.19;10255207;29;20318;-68
2023/04/08 03:44:01;;;;;;;;;;;;;;;6.30;100.00;102245.88;10255656;29;19937;-68
2023/04/08 03:49:04;;;;;;;;;;;;;;;6.58;100.00;102244.53;10252607;28;20013;-68
2023/04/08 03:54:06;;;;;;;;;;;;;;;6.20;100.00;102253.84;10255256;29;19930;-68
2023/04/08 03:59:08;;;;;;;;;;;;;;;6.09;100.00;102259.22;10255198;29;19927;-68
2023/04/08 04:04:11;;;;;;;;;;;;;;;6.26;100.00;102258.94;10254437;28;19930;-68
2023/04/08 04:09:14;;;;;;;;;;;;;;;5.96;100.00;102266.31;10253367;28;19978;-68
2023/04/08 04:14:16;;;;;;;;;;;;;;;6.08;100.00;102263.53;10254215;29;20440;-68
2023/04/08 04:19:18;;;;;;;;;;;;;;;5.45;100.00;102279.97;10254540;29;19954;-68
2023/04/08 04:24:20;;;;;;;;;;;;;;;5.69;100.00;102285.72;10251867;29;20342;-68
2023/04/08 04:29:22;;;;;;;;;;;;;;;5.79;100.00;102284.72;10252851;29;19926;-68
2023/04/08 04:34:24;;;;;;;;;;;;;;;5.75;100.00;102291.72;10253634;29;19926;-67
2023/04/08 04:39:27;;;;;;;;;;;;;;;5.57;100.00;102292.78;10253592;29;19926;-68
2023/04/08 04:44:29;;;;;;;;;;;;;;;5.76;100.00;102288.22;10252663;29;19997;-68
2023/04/08 04:49:31;;;;;;;;;;;;;;;5.41;100.00;102296.44;10252459;29;19957;-68
2023/04/08 04:54:33;;;;;;;;;;;;;;;5.53;100.00;102300.63;10253341;28;19927;-68
2023/04/08 04:59:35;;;;;;;;;;;;;;;5.33;100.00;102300.88;10253857;29;19933;-67
2023/04/08 05:04:38;;;;;;;;;;;;;;;5.33;100.00;102319.06;10253433;29;19930;-68
2023/04/08 05:09:40;;;;;;;;;;;;;;;5.26;100.00;102318.28;10252223;28;19927;-68
2023/04/08 05:14:42;;;;;;;;;;;;;;;4.97;100.00;102323.75;10253740;29;19926;-68
2023/04/08 05:19:45;;;;;;;;;;;;;;;5.26;100.00;102320.00;10253615;29;19927;-68
2023/04/08 05:24:47;;;;;;;;;;;;;;;5.21;100.00;102328.72;10252588;29;19926;-68
2023/04/08 05:29:50;;;;;;;;;;;;;;;5.24;100.00;102335.59;10251971;28;19926;-67
2023/04/08 05:34:52;;;;;;;;;;;;;;;5.30;100.00;102332.94;10259887;29;20393;-68
2023/04/08 05:39:55;;;;;;;;;;;;;;;5.00;100.00;102340.16;10259762;29;20275;-68
2023/04/08 05:44:57;;;;;;;;;;;;;;;5.05;100.00;102336.69;10315073;23;19925;-65
2023/04/08 05:49:59;;;;;;;;;;;;;;;5.17;100.00;102346.94;10420859;28;19926;-65
2023/04/08 05:55:01;;;;;;;;;;;;;;;4.95;100.00;102349.72;10421416;28;19929;-65
2023/04/08 06:00:05;;;;;;;;;;;;;;;4.86;100.00;102351.53;10420539;28;20283;-65
2023/04/08 06:05:07;;;;;;;;;;;;;;;5.37;100.00;102355.38;10419585;28;20276;-65
2023/04/08 06:10:10;;;;;;;;;;;;;;;5.25;100.00;102352.91;10419272;28;19925;-65
2023/04/08 06:15:12;;;;;;;;;;;;;;;5.08;100.00;102357.41;10419020;28;19948;-66
2023/04/08 06:20:14;;;;;;;;;;;;;;;5.35;100.00;102361.47;10419768;28;19979;-65
2023/04/08 06:25:17;;;;;;;;;;;;;;;5.45;100.00;102367.44;10418834;28;20281;-65
2023/04/08 06:30:19;;;;;;;;;;;;;;;5.37;100.00;102375.31;10418462;28;19972;-65
2023/04/08 06:35:21;;;;;;;;;;;;;;;5.07;100.00;102379.06;10419137;28;20268;-65
2023/04/08 06:40:24;;;;;;;;;;;;;;;5.12;100.00;102387.66;10419161;28;19925;-65
2023/04/08 06:45:27;;;;;;;;;;;;;;;5.51;100.00;102389.00;10417027;28;19978;-65
2023/04/08 06:50:29;;;;;;;;;;;;;;;5.83;100.00;102392.09;10400996;28;20016;-65
2023/04/08 06:55:32;;;;;;;;;;;;;;;5.99;100.00;102388.47;10418298;28;20384;-65
2023/04/08 07:00:34;;;;;;;;;;;;;;;6.08;100.00;102397.91;10418156;28;19925;-65
2023/04/08 07:05:37;;;;;;;;;;;;;;;5.50;100.00;102405.47;10417816;28;19929;-65
2023/04/08 07:10:39;;;;;;;;;;;;;;;6.04;100.00;102422.22;10399245;28;20044;-65
2023/04/08 07:15:41;;;;;;;;;;;;;;;6.32;100.00;102410.59;10418166;28;19925;-65
2023/04/08 07:20:44;;;;;;;;;;;;;;;6.90;100.00;102410.59;10399924;28;19929;-65
2023/04/08 07:25:47;;;;;;;;;;;;;;;7.00;100.00;102417.34;10416309;28;19929;-65
2023/04/08 07:30:49;;;;;;;;;;;;;;;7.59;100.00;102425.00;10416168;28;19925;-65
2023/04/08 07:35:51;;;;;;;;;;;;;;;7.46;100.00;102425.25;10416719;28;19925;-65
2023/04/08 07:40:54;;;;;;;;;;;;;;;8.44;99.02;102419.81;10417240;28;20012;-65
2023/04/08 07:46:03;;;;;;;;;;;;;;;8.41;96.18;102433.78;10398869;28;19936;-65
2023/04/08 07:51:06;;;;;;;;;;;;;;;8.23;98.12;102442.00;10397789;28;19925;-65
2023/04/08 07:56:12;;;;;;;;;;;;;;;8.49;95.24;102434.50;10415087;28;19925;-65
2023/04/08 08:01:16;;;;;;;;;;;;;;;9.40;94.13;102439.28;10416665;28;19925;-65
2023/04/08 08:06:19;;;;;;;;;;;;;;;9.47;89.21;102436.47;10415820;28;19932;-65
2023/04/08 08:11:22;;;;;;;;;;;;;;;10.12;87.89;102436.41;10414798;28;19987;-65
2023/04/08 08:16:27;;;;;;;;;;;;;;;8.53;86.41;102440.50;10415590;28;20368;-65
2023/04/08 08:21:30;;;;;;;;;;;;;;;10.28;86.06;102436.84;10415476;28;19925;-65
2023/04/08 08:26:38;;;;;;;;;;;;;;;9.82;83.85;102442.50;10415130;28;19925;-65
2023/04/08 08:31:40;;;;;;;;;;;;;;;10.22;85.69;102450.94;10414350;28;19925;-65
2023/04/08 08:36:42;;;;;;;;;;;;;;;10.14;86.03;102447.72;10408691;28;19925;-66
2023/04/08 08:41:44;;;;;;;;;;;;;;;10.12;86.11;102463.47;10413493;28;20427;-66
2023/04/08 08:46:47;;;;;;;;;;;;;;;10.66;85.35;102463.63;10414600;28;20376;-66
2023/04/08 08:51:50;;;;;;;;;;;;;;;10.74;80.17;102466.88;10415457;28;19925;-66
2023/04/08 08:56:52;;;;;;;;;;;;;;;11.46;79.87;102468.88;10414636;28;20391;-66
2023/04/08 09:01:54;;;;;;;;;;;;;;;12.07;75.71;102471.13;10412297;28;19988;-66
2023/04/08 09:07:09;;;;;;;;;;;;;;;12.44;74.55;102482.88;10418857;28;19963;-66
2023/04/08 09:12:12;;;;;;;;;;;;;;;12.51;70.32;102486.97;10422330;28;19925;-68
2023/04/08 09:17:31;;;;;;;;;;;;;;;13.09;72.56;102485.56;10422191;28;19929;-68
2023/04/08 09:22:33;;;;;;;;;;;;;;;12.83;69.39;102490.97;10403149;28;19925;-69
2023/04/08 09:27:36;;;;;;;;;;;;;;;13.98;69.93;102475.66;10421601;28;19983;-68
2023/04/08 09:32:46;;;;;;;;;;;;;;;14.81;65.05;102482.34;10418674;28;19952;-69
2023/04/08 09:37:48;;;;;;;;;;;;;;;14.66;63.27;102470.78;10421444;28;20016;-68
2023/04/08 09:42:52;;;;;;;;;;;;;;;13.81;62.11;102477.25;10402956;28;20383;-69
2023/04/08 09:48:00;;;;;;;;;;;;;;;13.22;63.40;102485.91;10401073;28;19926;-69
2023/04/08 09:53:13;;;;;;;;;;;;;;;14.70;63.78;102488.13;10420158;28;19932;-69
2023/04/08 09:58:16;;;;;;;;;;;;;;;16.57;60.30;102495.22;10416839;28;19936;-69
2023/04/08 10:03:39;;;;;;;;;;;;;;;15.63;59.26;102487.03;10419136;28;19925;-69
2023/04/08 10:08:41;;;;;;;;;;;;;;;15.73;60.97;102490.03;10402723;28;19925;-69
2023/04/08 10:13:43;;;;;;;;;;;;;;;16.93;59.98;102494.13;10420682;28;19971;-69
2023/04/08 10:18:46;;;;;;;;;;;;;;;17.70;57.67;102480.78;10401693;28;19932;-69
2023/04/08 10:23:56;;;;;;;;;;;;;;;17.35;56.76;102486.41;10419629;28;19979;-69
2023/04/08 10:29:21;;;;;;;;;;;;;;;18.48;55.42;102489.19;10419999;28;19929;-69
2023/04/08 10:34:25;;;;;;;;;;;;;;;18.88;54.43;102486.63;10411452;28;19972;-69
2023/04/08 10:39:27;;;;;;;;;;;;;;;18.26;55.12;102480.91;10400418;28;19925;-69
2023/04/08 10:44:30;;;;;;;;;;;;;;;20.44;52.67;102467.06;10399962;28;19952;-69
2023/04/08 10:49:33;;;;;;;;;;;;;;;18.53;51.06;102475.63;10401027;28;19925;-69
2023/04/08 10:54:36;;;;;;;;;;;;;;;16.83;55.61;102471.75;10400339;28;19929;-69
2023/04/08 10:59:38;;;;;;;;;;;;;;;17.01;54.51;102467.22;10395700;28;19925;-69
2023/04/08 11:04:41;;;;;;;;;;;;;;;18.37;54.30;102462.50;10418665;28;19932;-69
2023/04/08 11:09:44;;;;;;;;;;;;;;;17.58;51.30;102466.50;10416662;28;19925;-69
2023/04/08 11:14:46;;;;;;;;;;;;;;;16.95;51.53;102471.06;10415938;28;19925;-69
2023/04/08 11:19:50;;;;;;;;;;;;;;;17.35;53.26;102478.47;10417271;28;19932;-69
2023/04/08 11:24:52;;;;;;;;;;;;;;;17.95;51.91;102458.97;10400449;28;19972;-69
2023/04/08 11:29:55;;;;;;;;;;;;;;;17.96;52.45;102458.88;10398645;28;19925;-69
2023/04/08 11:35:01;;;;;;;;;;;;;;;17.21;54.32;102458.94;10399894;28;19929;-69
2023/04/08 11:40:07;;;;;;;;;;;;;;;16.88;54.04;102454.72;10397908;28;19972;-69
2023/04/08 11:45:11;;;;;;;;;;;;;;;15.55;56.17;102453.13;10415867;28;19925;-69
2023/04/08 11:50:23;;;;;;;;;;;;;;;15.71;55.79;102454.94;10398671;28;19972;-69
2023/04/08 11:55:26;;;;;;;;;;;;;;;15.61;55.84;102452.78;10413775;28;19932;-69
2023/04/08 12:00:28;;;;;;;;;;;;;;;15.49;58.20;102464.00;10407478;28;19925;-69
2023/04/08 12:05:30;;;;;;;;;;;;;;;15.85;56.29;102459.53;10398853;28;19925;-69
2023/04/08 12:10:33;;;;;;;;;;;;;;;15.83;55.62;102464.88;10416101;28;19979;-70
2023/04/08 12:15:35;;;;;;;;;;;;;;;15.60;57.88;102461.66;10414974;28;20423;-69
2023/04/08 12:20:37;;;;;;;;;;;;;;;15.77;56.60;102468.72;10414730;28;20490;-68
2023/04/08 12:25:39;;;;;;;;;;;;;;;15.65;55.35;102463.19;10413248;28;20265;-69
2023/04/08 12:30:41;;;;;;;;;;;;;;;16.74;56.44;102465.19;10414740;28;19932;-69
2023/04/08 12:35:44;;;;;;;;;;;;;;;18.07;54.33;102450.25;10415116;28;19932;-69
2023/04/08 12:40:46;;;;;;;;;;;;;;;17.57;54.05;102447.13;10419333;28;19931;-69
2023/04/08 12:45:50;;;;;;;;;;;;;;;18.42;48.65;102443.66;10420286;28;19925;-69
2023/04/08 12:50:53;;;;;;;;;;;;;;;18.69;47.30;102438.34;10416945;28;20289;-69
2023/04/08 12:55:56;;;;;;;;;;;;;;;18.06;48.55;102445.06;10422182;28;19925;-68
2023/04/08 13:00:58;;;;;;;;;;;;;;;19.12;48.06;102443.47;10421189;28;19972;-69
2023/04/08 13:06:01;;;;;;;;;;;;;;;19.77;47.12;102447.00;10420423;28;20023;-69
2023/04/08 13:11:03;;;;;;;;;;;;;;;20.39;47.09;102448.75;10419914;28;19925;-69
2023/04/08 13:16:05;;;;;;;;;;;;;;;18.80;49.81;102445.59;10413542;28;19972;-69
2023/04/08 13:21:08;;;;;;;;;;;;;;;19.09;50.84;102446.31;10416336;28;20012;-69
2023/04/08 13:26:10;;;;;;;;;;;;;;;19.42;48.53;102450.31;10400944;28;19933;-69
2023/04/08 13:31:12;;;;;;;;;;;;;;;18.66;49.25;102447.38;10385365;28;19933;-69
2023/04/08 13:36:14;;;;;;;;;;;;;;;19.33;46.08;102441.13;10397661;28;19972;-69
2023/04/08 13:41:16;;;;;;;;;;;;;;;19.86;47.08;102446.38;10394204;28;19928;-69
2023/04/08 13:46:19;;;;;;;;;;;;;;;18.72;47.03;102449.59;10420882;28;19971;-69
2023/04/08 13:51:21;;;;;;;;;;;;;;;19.26;48.03;102442.53;10405905;28;19931;-69
2023/04/08 13:56:23;;;;;;;;;;;;;;;21.21;45.30;102435.56;10399361;28;19972;-69
2023/04/08 14:01:26;;;;;;;;;;;;;;;21.93;44.25;102423.75;10411213;28;19980;-69
2023/04/08 14:06:28;;;;;;;;;;;;;;;20.93;46.16;102439.47;10410843;28;20403;-69
2023/04/08 14:11:31;;;;;;;;;;;;;;;21.51;47.72;102431.53;10418040;28;19925;-69
2023/04/08 14:16:34;;;;;;;;;;;;;;;22.21;44.86;102432.22;10401978;28;19925;-69
2023/04/08 14:21:37;;;;;;;;;;;;;;;22.44;43.98;102430.34;10403658;28;19933;-69
2023/04/08 14:26:39;;;;;;;;;;;;;;;23.03;44.16;102422.78;10396234;28;19925;-69
2023/04/08 14:31:41;;;;;;;;;;;;;;;22.30;45.34;102422.63;10418561;28;19925;-69
2023/04/08 14:36:44;;;;;;;;;;;;;;;21.17;45.96;102433.28;10411096;28;19933;-69
2023/04/08 14:41:46;;;;;;;;;;;;;;;20.45;47.28;102431.53;10418589;28;19948;-69
2023/04/08 14:46:49;;;;;;;;;;;;;;;20.13;47.95;102426.75;10418355;28;19932;-69
2023/04/08 14:51:51;;;;;;;;;;;;;;;22.87;47.77;102415.25;10419463;28;19925;-69
2023/04/08 14:56:54;;;;;;;;;;;;;;;22.14;47.20;102410.53;10419350;28;19925;-69
2023/04/08 15:01:57;;;;;;;;;;;;;;;22.27;47.16;102413.03;10411256;28;20360;-69
2023/04/08 15:06:59;;;;;;;;;;;;;;;22.71;46.21;102405.88;10398537;28;19925;-69
2023/04/08 15:12:01;;;;;;;;;;;;;;;21.60;44.11;102400.63;10417265;28;19933;-68
2023/04/08 15:17:04;;;;;;;;;;;;;;;21.54;47.10;102399.31;10424846;23;19932;-67
2023/04/08 15:22:06;;;;;;;;;;;;;;;23.12;44.14;102398.84;10416836;28;19932;-68
2023/04/08 15:27:14;;;;;;;;;;;;;;;23.00;43.76;102400.72;10621690;27;1960081;-66
2023/04/08 15:32:16;;;;;;;;;;;;;;;21.42;44.80;102401.09;10649687;27;19935;-65
2023/04/08 15:37:19;;;;;;;;;;;;;;;22.37;47.76;102407.81;10628551;27;19927;-65
2023/04/08 15:42:21;;;;;;;;;;;;;;;20.82;45.72;102392.41;10642536;27;20327;-65
2023/04/08 15:47:23;;;;;;;;;;;;;;;19.91;48.71;102406.19;10637039;27;20327;-68
2023/04/08 15:52:26;;;;;;;;;;;;;;;18.15;51.02;102405.53;10641554;27;20393;-67
2023/04/08 15:57:30;;;;;;;;;;;;;;;19.21;50.71;102400.34;10646799;27;19924;-68
2023/04/08 16:02:33;;;;;;;;;;;;;;;18.81;51.11;102397.75;10658875;27;19950;-65
2023/04/08 16:07:36;;;;;;;;;;;;;;;17.81;54.39;102397.06;10617459;27;19939;-67
2023/04/08 16:12:38;;;;;;;;;;;;;;;17.44;56.17;102399.34;10654360;27;19923;-67
2023/04/08 16:17:40;;;;;;;;;;;;;;;17.04;57.71;102403.53;10649774;27;19931;-68
2023/04/08 16:22:43;;;;;;;;;;;;;;;16.25;58.45;102408.00;10649855;27;19980;-67
2023/04/08 16:27:46;;;;;;;;;;;;;;;15.98;59.92;102408.59;10610157;27;19923;-67
2023/04/08 16:32:48;;;;;;;;;;;;;;;16.26;59.44;102407.06;10636219;27;19931;-67
2023/04/08 16:37:51;;;;;;;;;;;;;;;16.15;60.11;102417.38;10597537;27;20370;-67
2023/04/08 16:42:53;;;;;;;;;;;;;;;15.54;63.82;102410.97;10594727;27;19923;-66
2023/04/08 16:47:56;;;;;;;;;;;;;;;15.45;62.51;102416.72;10588143;28;19924;-67
2023/04/08 16:52:58;;;;;;;;;;;;;;;15.73;62.15;102418.75;10587992;28;19923;-67
2023/04/08 16:58:01;;;;;;;;;;;;;;;15.02;65.60;102419.78;10587234;28;19927;-67
2023/04/08 17:03:03;;;;;;;;;;;;;;;14.96;65.70;102423.59;10569748;28;19980;-67
2023/04/08 17:08:06;;;;;;;;;;;;;;;14.80;66.89;102414.72;10587822;27;19935;-67
2023/04/08 17:13:09;;;;;;;;;;;;;;;14.48;68.17;102428.50;10613949;27;19931;-67
2023/04/08 17:18:12;;;;;;;;;;;;;;;14.47;69.01;102433.84;10629252;27;19924;-67
2023/04/08 17:23:14;;;;;;;;;;;;;;;14.17;69.92;102426.50;10628778;27;19927;-66
2023/04/08 17:28:17;;;;;;;;;;;;;;;14.30;69.94;102435.50;10599553;27;19927;-66
2023/04/08 17:33:20;;;;;;;;;;;;;;;13.96;71.95;102427.47;10586380;28;19924;-66
2023/04/08 17:38:22;;;;;;;;;;;;;;;13.73;72.08;102434.63;10586042;28;20324;-67
2023/04/08 17:43:24;;;;;;;;;;;;;;;13.54;70.97;102434.59;10570250;27;19938;-66
2023/04/08 17:48:27;;;;;;;;;;;;;;;13.48;73.53;102433.09;10585062;28;19997;-67
2023/04/08 17:53:29;;;;;;;;;;;;;;;13.54;73.21;102442.47;10588645;27;20327;-66
2023/04/08 17:58:32;;;;;;;;;;;;;;;13.44;74.51;102435.91;10654538;27;20278;-67
2023/04/08 18:03:34;;;;;;;;;;;;;;;13.28;74.71;102440.94;10614610;27;20341;-66
2023/04/08 18:08:36;;;;;;;;;;;;;;;13.00;77.37;102444.72;10618638;27;19992;-66
2023/04/08 18:13:38;;;;;;;;;;;;;;;13.00;77.12;102444.72;10669398;27;19927;-66
2023/04/08 18:18:40;;;;;;;;;;;;;;;12.86;79.35;102461.06;10643507;27;20462;-66
2023/04/08 18:23:45;;;;;;;;;;;;;;;12.96;78.10;102454.53;10583649;28;19935;-66
2023/04/08 18:28:47;;;;;;;;;;;;;;;12.76;80.01;102460.59;10624327;27;19923;-66
2023/04/08 18:33:50;;;;;;;;;;;;;;;12.89;79.21;102460.94;10626658;27;19923;-66
2023/04/08 18:38:52;;;;;;;;;;;;;;;12.52;81.02;102472.06;10624135;27;19947;-66
2023/04/08 18:43:55;;;;;;;;;;;;;;;12.69;79.43;102479.28;10583368;27;19928;-66
2023/04/08 18:48:58;;;;;;;;;;;;;;;12.52;80.94;102491.28;10583689;28;19923;-66
2023/04/08 18:54:00;;;;;;;;;;;;;;;12.26;82.15;102487.06;10583804;27;19992;-66
2023/04/08 18:59:02;;;;;;;;;;;;;;;12.10;83.03;102483.28;10584506;27;19924;-66
2023/04/08 19:04:05;;;;;;;;;;;;;;;11.69;84.78;102481.22;10587128;27;19924;-66
2023/04/08 19:09:07;;;;;;;;;;;;;;;11.54;87.96;102490.47;10583645;27;19931;-65
2023/04/08 19:14:09;;;;;;;;;;;;;;;11.51;86.55;102491.41;10600113;27;19956;-66
2023/04/08 19:19:11;;;;;;;;;;;;;;;11.89;83.09;102483.97;10602048;27;19923;-66
2023/04/08 19:24:14;;;;;;;;;;;;;;;11.53;87.33;102496.59;10604011;28;19927;-66
2023/04/08 19:29:18;;;;;;;;;;;;;;;11.44;87.22;102512.66;10625198;28;19931;-66
2023/04/08 19:34:20;;;;;;;;;;;;;;;11.44;85.91;102507.44;10625126;28;19923;-66
2023/04/08 19:39:22;;;;;;;;;;;;;;;11.41;85.43;102521.47;10591302;28;19931;-66
2023/04/08 19:44:27;;;;;;;;;;;;;;;11.23;85.56;102522.97;10606237;28;20297;-66
2023/04/08 19:49:30;;;;;;;;;;;;;;;11.32;86.08;102521.81;10593391;28;19928;-65
2023/04/08 19:54:32;;;;;;;;;;;;;;;11.38;86.08;102526.84;10581717;28;19977;-66
2023/04/08 19:59:34;;;;;;;;;;;;;;;11.22;89.27;102528.25;10583668;28;19924;-66
2023/04/08 20:04:36;;;;;;;;;;;;;;;11.23;87.71;102527.34;10563959;28;19924;-66
2023/04/08 20:09:39;;;;;;;;;;;;;;;11.20;87.01;102535.31;10608244;27;19923;-66
2023/04/08 20:14:42;;;;;;;;;;;;;;;11.00;87.38;102535.97;10629412;27;19931;-66
2023/04/08 20:19:44;;;;;;;;;;;;;;;10.97;87.25;102535.13;10632215;27;19969;-66
2023/04/08 20:24:46;;;;;;;;;;;;;;;11.13;87.35;102538.13;10631078;27;20075;-66
2023/04/08 20:29:49;;;;;;;;;;;;;;;11.16;87.99;102545.03;10603423;27;19928;-65
2023/04/08 20:34:51;;;;;;;;;;;;;;;11.15;86.80;102538.09;10570349;28;20264;-66
2023/04/08 20:39:53;;;;;;;;;;;;;;;10.86;90.16;102539.88;10594670;27;19928;-66
2023/04/08 20:44:55;;;;;;;;;;;;;;;10.97;90.07;102542.13;10635176;27;19924;-66
2023/04/08 20:49:58;;;;;;;;;;;;;;;10.93;90.42;102540.53;10596601;27;19985;-66
2023/04/08 20:55:01;;;;;;;;;;;;;;;11.02;90.81;102537.59;10618981;27;20335;-66
2023/04/08 21:00:04;;;;;;;;;;;;;;;11.01;90.17;102540.28;10630563;27;19928;-66
2023/04/08 21:05:07;;;;;;;;;;;;;;;10.94;90.49;102530.00;10616938;27;19923;-66
2023/04/08 21:10:09;;;;;;;;;;;;;;;10.91;90.89;102530.09;10587183;27;19927;-65
2023/04/08 21:15:12;;;;;;;;;;;;;;;10.88;91.80;102530.19;10572665;22;19970;-63
2023/04/08 21:20:14;;;;;;;;;;;;;;;10.76;92.91;102520.09;10516673;28;19923;-63
2023/04/08 21:25:16;;;;;;;;;;;;;;;10.91;92.14;102523.97;10524213;28;20322;-63
2023/04/08 21:30:20;;;;;;;;;;;;;;;10.62;93.13;102530.97;10501158;28;19963;-63
2023/04/08 21:35:22;;;;;;;;;;;;;;;10.86;92.78;102529.38;10502098;28;19925;-64
2023/04/08 21:40:25;;;;;;;;;;;;;;;10.84;94.56;102533.78;10500532;28;19924;-64
2023/04/08 21:45:27;;;;;;;;;;;;;;;10.84;94.75;102530.31;10501129;28;19986;-64
2023/04/08 21:50:31;;;;;;;;;;;;;;;10.83;94.97;102524.22;10500899;28;19924;-64
2023/04/08 21:55:33;;;;;;;;;;;;;;;10.67;94.83;102525.59;10499906;28;20291;-65
2023/04/08 22:00:35;;;;;;;;;;;;;;;10.84;92.17;102530.31;10500889;28;19924;-64
2023/04/08 22:05:37;;;;;;;;;;;;;;;10.56;93.56;102534.63;10500284;28;19928;-64
2023/04/08 22:10:40;;;;;;;;;;;;;;;10.71;92.86;102535.94;10499459;28;19924;-64
2023/04/08 22:15:42;;;;;;;;;;;;;;;10.67;91.10;102531.69;10494883;28;19924;-65
2023/04/08 22:20:44;;;;;;;;;;;;;;;10.77;92.72;102540.97;10500670;28;19932;-64
2023/04/08 22:25:49;;;;;;;;;;;;;;;10.56;94.52;102534.63;10498935;28;19925;-65
2023/04/08 22:30:53;;;;;;;;;;;;;;;10.64;94.48;102531.81;10498924;28;19924;-64
2023/04/08 22:35:56;;;;;;;;;;;;;;;10.54;94.67;102532.94;10498986;28;20338;-65
2023/04/08 22:40:58;;;;;;;;;;;;;;;10.70;95.41;102533.38;10499359;28;19924;-65
2023/04/08 22:46:00;;;;;;;;;;;;;;;10.58;95.67;102522.34;10497314;28;19932;-64
2023/04/08 22:51:03;;;;;;;;;;;;;;;10.57;95.74;102530.25;10497668;28;20390;-64
2023/04/08 22:56:05;;;;;;;;;;;;;;;10.57;95.43;102531.13;10499490;28;19932;-65
2023/04/08 23:01:11;;;;;;;;;;;;;;;10.76;92.01;102528.81;10497722;28;19928;-64
2023/04/08 23:06:13;;;;;;;;;;;;;;;10.68;95.25;102528.16;10498032;28;20043;-65
2023/04/08 23:11:16;;;;;;;;;;;;;;;10.60;95.80;102524.91;10497714;28;20371;-64
2023/04/08 23:16:18;;;;;;;;;;;;;;;10.75;94.12;102524.44;10497096;28;20401;-65
2023/04/08 23:21:20;;;;;;;;;;;;;;;10.50;97.39;102523.47;10498016;28;19956;-64
2023/04/08 23:26:23;;;;;;;;;;;;;;;10.39;97.89;102518.56;10497635;28;19925;-64
2023/04/08 23:31:26;;;;;;;;;;;;;;;10.47;95.78;102519.19;10498734;28;19924;-64
2023/04/08 23:36:28;;;;;;;;;;;;;;;10.55;96.35;102522.44;10496218;28;20020;-64
2023/04/08 23:41:30;;;;;;;;;;;;;;;10.54;95.62;102528.59;10497603;28;19924;-64
2023/04/08 23:46:32;;;;;;;;;;;;;;;10.49;97.34;102527.88;10501782;28;19925;-64
2023/04/08 23:51:35;;;;;;;;;;;;;;;10.39;98.19;102521.19;10505375;28;19925;-64
2023/04/08 23:56:39;;;;;;;;;;;;;;;10.52;96.03;102521.66;10506449;28;19924;-64
